createdAt,value
2023-02-14T00:00:34.817Z,73.40
2023-02-14T00:03:01.722Z,73.68
2023-02-14T00:05:28.487Z,73.27
2023-02-14T00:07:55.244Z,73.49
2023-02-14T00:10:21.985Z,73.36
2023-02-14T00:12:48.712Z,73.75
2023-02-14T00:15:25.900Z,73.49
2023-02-14T00:17:54.793Z,73.89
2023-02-14T00:20:22.791Z,73.60
2023-02-14T00:22:49.610Z,73.77
2023-02-14T00:25:16.425Z,73.69
2023-02-14T00:27:43.409Z,74.16
2023-02-14T00:30:11.101Z,73.47
2023-02-14T00:32:39.557Z,73.70
2023-02-14T00:35:07.304Z,73.60
2023-02-14T00:37:34.136Z,73.99
2023-02-14T00:40:00.847Z,73.58
2023-02-14T00:42:27.749Z,73.94
2023-02-14T00:44:54.560Z,73.61
2023-02-14T00:47:21.499Z,73.57
2023-02-14T00:49:48.411Z,73.89
2023-02-14T00:52:15.273Z,74.14
2023-02-14T00:54:42.057Z,73.75
2023-02-14T00:57:08.919Z,74.41
2023-02-14T00:59:36.290Z,74.18
2023-02-14T01:02:04.122Z,74.16
2023-02-14T01:04:30.940Z,73.92
2023-02-14T01:06:57.800Z,73.96
2023-02-14T01:09:24.537Z,74.17
2023-02-14T01:11:51.361Z,74.31
2023-02-14T01:14:18.250Z,73.74
2023-02-14T01:16:45.270Z,73.93
2023-02-14T01:19:30.965Z,73.85
2023-02-14T01:22:16.618Z,73.80
2023-02-14T01:24:43.939Z,74.28
2023-02-14T01:27:10.618Z,74.12
2023-02-14T01:29:37.492Z,73.78
2023-02-14T01:32:04.359Z,74.27
2023-02-14T01:34:31.466Z,73.99
2023-02-14T01:36:58.392Z,73.65
2023-02-14T01:39:25.198Z,73.62
2023-02-14T01:41:54.043Z,73.93
2023-02-14T01:44:26.845Z,73.83
2023-02-14T01:46:54.076Z,74.01
2023-02-14T01:49:25.803Z,73.83
2023-02-14T01:52:12.873Z,73.78
2023-02-14T01:54:41.590Z,73.51
2023-02-14T01:57:12.479Z,73.78
2023-02-14T01:59:42.236Z,73.75
2023-02-14T02:02:09.838Z,74.08
2023-02-14T02:04:39.047Z,74.02
2023-02-14T02:07:07.648Z,73.54
2023-02-14T02:09:42.520Z,74.08
2023-02-14T02:12:09.819Z,73.94
2023-02-14T02:14:37.105Z,74.17
2023-02-14T02:17:06.994Z,73.71
2023-02-14T02:19:51.097Z,73.60
2023-02-14T02:22:38.764Z,74.01
2023-02-14T02:25:28.588Z,73.74
2023-02-14T02:28:31.012Z,73.86
2023-02-14T02:30:58.265Z,74.08
2023-02-14T02:33:28.533Z,74.32
2023-02-14T02:36:03.362Z,73.88
2023-02-14T02:38:52.064Z,74.02
2023-02-14T02:41:27.883Z,74.01
2023-02-14T02:44:03.770Z,74.00
2023-02-14T02:46:50.080Z,74.04
2023-02-14T02:49:49.281Z,73.77
2023-02-14T02:52:54.984Z,73.88
2023-02-14T02:55:25.053Z,73.97
2023-02-14T02:57:54.237Z,73.85
2023-02-14T03:00:22.561Z,73.83
2023-02-14T03:03:10.189Z,74.12
2023-02-14T03:05:37.026Z,74.23
2023-02-14T03:08:04.924Z,74.31
2023-02-14T03:10:34.129Z,74.11
2023-02-14T03:13:10.949Z,74.05
2023-02-14T03:15:53.155Z,74.38
2023-02-14T03:18:20.101Z,74.25
2023-02-14T03:20:47.444Z,74.17
2023-02-14T03:23:21.034Z,74.73
2023-02-14T03:25:48.174Z,74.72
2023-02-14T03:28:39.028Z,74.39
2023-02-14T03:31:29.420Z,74.70
2023-02-14T03:34:11.024Z,74.67
2023-02-14T03:36:41.413Z,74.65
2023-02-14T03:39:16.354Z,74.52
2023-02-14T03:41:46.659Z,74.94
2023-02-14T03:44:18.030Z,74.97
2023-02-14T03:46:53.672Z,74.65
2023-02-14T03:49:23.867Z,75.10
2023-02-14T03:51:52.476Z,74.60
2023-02-14T03:54:20.026Z,74.79
2023-02-14T03:56:49.709Z,75.00
2023-02-14T03:59:24.845Z,74.62
2023-02-14T04:01:54.729Z,74.82
2023-02-14T04:04:24.436Z,74.34
2023-02-14T04:06:51.501Z,74.63
2023-02-14T04:09:18.396Z,74.68
2023-02-14T04:11:46.650Z,74.98
2023-02-14T04:14:13.604Z,74.54
2023-02-14T04:16:59.715Z,75.04
2023-02-14T04:19:26.664Z,74.85
2023-02-14T04:21:53.591Z,74.97
2023-02-14T04:24:20.835Z,74.76
2023-02-14T04:27:06.244Z,74.87
2023-02-14T04:29:33.021Z,74.84
2023-02-14T04:32:00.050Z,74.88
2023-02-14T04:34:26.975Z,75.15
2023-02-14T04:36:53.963Z,75.53
2023-02-14T04:39:20.937Z,75.48
2023-02-14T04:41:47.754Z,75.64
2023-02-14T04:44:14.837Z,75.92
2023-02-14T04:46:41.915Z,75.85
2023-02-14T04:49:11.710Z,75.56
2023-02-14T04:51:38.546Z,75.71
2023-02-14T04:54:05.348Z,75.90
2023-02-14T04:56:38.552Z,75.44
2023-02-14T04:59:10.582Z,75.58
2023-02-14T05:01:37.474Z,74.97
2023-02-14T05:04:04.445Z,75.53
2023-02-14T05:06:31.333Z,75.39
2023-02-14T05:09:23.918Z,74.88
2023-02-14T05:11:50.806Z,75.23
2023-02-14T05:14:17.531Z,74.72
2023-02-14T05:16:44.380Z,74.98
2023-02-14T05:19:17.891Z,74.63
2023-02-14T05:21:47.487Z,74.83
2023-02-14T05:24:14.314Z,74.30
2023-02-14T05:26:41.187Z,74.50
2023-02-14T05:29:08.269Z,74.00
2023-02-14T05:31:36.284Z,74.44
2023-02-14T05:34:07.819Z,74.36
2023-02-14T05:36:44.233Z,74.50
2023-02-14T05:39:23.679Z,74.41
2023-02-14T05:41:55.172Z,74.68
2023-02-14T05:44:22.377Z,74.76
2023-02-14T05:46:49.331Z,74.49
2023-02-14T05:49:16.086Z,74.23
2023-02-14T05:51:42.929Z,74.31
2023-02-14T05:54:11.073Z,74.59
2023-02-14T05:56:38.348Z,74.27
2023-02-14T05:59:05.190Z,74.11
2023-02-14T06:01:32.166Z,74.00
2023-02-14T06:03:58.963Z,74.16
2023-02-14T06:06:25.884Z,74.23
2023-02-14T06:08:52.663Z,74.60
2023-02-14T06:11:19.464Z,74.17
2023-02-14T06:13:46.195Z,74.01
2023-02-14T06:16:13.011Z,74.28
2023-02-14T06:18:39.927Z,74.25
2023-02-14T06:21:06.762Z,74.76
2023-02-14T06:23:33.522Z,74.26
2023-02-14T06:26:00.394Z,74.46
2023-02-14T06:28:27.158Z,74.28
2023-02-14T06:30:53.998Z,74.30
2023-02-14T06:33:20.823Z,74.75
2023-02-14T06:35:47.609Z,74.29
2023-02-14T06:38:14.486Z,74.12
2023-02-14T06:40:41.282Z,74.01
2023-02-14T06:43:08.149Z,74.51
2023-02-14T06:45:35.059Z,74.50
2023-02-14T06:48:01.870Z,74.66
2023-02-14T06:50:28.743Z,74.60
2023-02-14T06:52:55.795Z,74.56
2023-02-14T06:55:22.695Z,74.16
2023-02-14T06:57:49.494Z,74.11
2023-02-14T07:00:16.505Z,74.28
2023-02-14T07:02:43.562Z,74.09
2023-02-14T07:05:10.524Z,74.40
2023-02-14T07:07:37.462Z,74.57
2023-02-14T07:10:04.628Z,74.64
2023-02-14T07:12:31.514Z,74.97
2023-02-14T07:14:58.403Z,74.73
2023-02-14T07:17:25.359Z,75.00
2023-02-14T07:19:52.411Z,74.98
2023-02-14T07:22:19.236Z,74.19
2023-02-14T07:24:46.211Z,74.47
2023-02-14T07:27:13.019Z,73.82
2023-02-14T07:29:39.864Z,74.47
2023-02-14T07:32:06.909Z,74.47
2023-02-14T07:34:33.777Z,74.69
2023-02-14T07:37:01.229Z,74.64
2023-02-14T07:39:28.117Z,74.03
2023-02-14T07:41:57.467Z,74.39
2023-02-14T07:44:26.626Z,74.35
2023-02-14T07:46:53.450Z,74.29
2023-02-14T07:49:20.351Z,74.45
2023-02-14T07:51:47.544Z,73.98
2023-02-14T07:54:14.459Z,73.99
2023-02-14T07:56:41.231Z,74.33
2023-02-14T07:59:08.099Z,74.43
2023-02-14T08:01:34.948Z,74.41
2023-02-14T08:04:02.275Z,74.02
2023-02-14T08:06:29.600Z,74.46
2023-02-14T08:08:56.750Z,74.64
2023-02-14T08:11:42.978Z,74.83
2023-02-14T08:14:10.122Z,74.59
2023-02-14T08:16:40.038Z,74.15
2023-02-14T08:19:07.320Z,74.39
2023-02-14T08:21:34.685Z,74.80
2023-02-14T08:24:01.998Z,74.26
2023-02-14T08:26:32.756Z,74.97
2023-02-14T08:29:01.630Z,74.68
2023-02-14T08:31:35.600Z,75.00
2023-02-14T08:34:04.346Z,74.70
2023-02-14T08:36:32.437Z,74.96
2023-02-14T08:38:59.286Z,74.51
2023-02-14T08:41:26.257Z,74.94
2023-02-14T08:43:53.587Z,74.48
2023-02-14T08:46:22.331Z,75.02
2023-02-14T08:48:50.299Z,75.44
2023-02-14T08:51:17.060Z,75.42
2023-02-14T08:53:44.344Z,75.44
2023-02-14T08:56:12.742Z,75.04
2023-02-14T08:58:41.007Z,74.79
2023-02-14T09:01:09.032Z,74.97
2023-02-14T09:03:38.266Z,75.16
2023-02-14T09:06:06.439Z,74.69
2023-02-14T09:08:35.244Z,74.64
2023-02-14T09:11:16.276Z,74.35
2023-02-14T09:13:43.325Z,74.49
2023-02-14T09:16:11.413Z,74.58
2023-02-14T09:18:38.707Z,74.23
2023-02-14T09:21:10.209Z,73.37
2023-02-14T09:23:37.740Z,72.60
2023-02-14T09:26:06.005Z,71.46
2023-02-14T09:28:32.939Z,71.63
2023-02-14T09:31:07.951Z,71.11
2023-02-14T09:33:34.883Z,72.07
2023-02-14T09:36:20.788Z,72.25
2023-02-14T09:38:47.636Z,71.87
2023-02-14T09:41:29.698Z,71.53
2023-02-14T09:44:06.377Z,71.39
2023-02-14T09:46:37.113Z,71.13
2023-02-14T09:49:04.039Z,69.84
2023-02-14T09:51:31.885Z,69.66
2023-02-14T09:54:19.431Z,69.28
2023-02-14T09:57:02.838Z,69.59
2023-02-14T09:59:34.543Z,69.97
2023-02-14T10:02:16.090Z,70.51
2023-02-14T10:04:50.003Z,70.49
2023-02-14T10:07:35.655Z,70.43
2023-02-14T10:10:02.600Z,71.45
2023-02-14T10:12:32.129Z,71.38
2023-02-14T10:15:01.243Z,70.78
2023-02-14T10:17:35.343Z,70.60
2023-02-14T10:20:05.977Z,70.88
2023-02-14T10:22:41.945Z,71.28
2023-02-14T10:25:29.237Z,70.89
2023-02-14T10:27:58.403Z,71.50
2023-02-14T10:30:26.086Z,71.69
2023-02-14T10:33:13.336Z,71.61
2023-02-14T10:35:59.736Z,71.28
2023-02-14T10:38:40.943Z,71.99
2023-02-14T10:41:43.461Z,70.73
2023-02-14T10:44:26.373Z,71.90
2023-02-14T10:47:04.690Z,72.25
2023-02-14T10:49:45.907Z,69.95
2023-02-14T10:52:21.830Z,70.15
2023-02-14T10:55:06.211Z,69.99
2023-02-14T10:57:35.999Z,69.14
2023-02-14T11:00:07.034Z,69.30
2023-02-14T11:02:40.280Z,68.52
2023-02-14T11:05:07.871Z,68.09
2023-02-14T11:07:34.810Z,68.96
2023-02-14T11:10:01.785Z,70.12
2023-02-14T11:12:40.310Z,69.09
2023-02-14T11:15:21.280Z,68.73
2023-02-14T11:17:48.763Z,68.46
2023-02-14T11:20:19.181Z,69.15
2023-02-14T11:22:46.543Z,68.57
2023-02-14T11:25:21.629Z,68.55
2023-02-14T11:27:51.167Z,68.39
2023-02-14T11:30:20.648Z,68.89
2023-02-14T11:32:52.791Z,69.62
2023-02-14T11:35:24.400Z,70.70
2023-02-14T11:37:52.062Z,70.54
2023-02-14T11:40:30.942Z,71.00
2023-02-14T11:43:17.597Z,71.46
2023-02-14T11:45:48.461Z,71.24
2023-02-14T11:48:37.894Z,70.75
2023-02-14T11:51:11.106Z,70.89
2023-02-14T11:54:00.830Z,70.73
2023-02-14T11:56:43.418Z,68.91
2023-02-14T11:59:12.717Z,69.21
2023-02-14T12:01:39.593Z,69.70
2023-02-14T12:04:12.473Z,70.15
2023-02-14T12:06:39.425Z,69.80
2023-02-14T12:09:24.860Z,70.10
2023-02-14T12:11:56.659Z,69.69
2023-02-14T12:14:24.498Z,69.96
2023-02-14T12:17:17.742Z,69.58
2023-02-14T12:19:54.884Z,67.24
2023-02-14T12:22:33.116Z,68.06
2023-02-14T12:25:13.915Z,66.79
2023-02-14T12:27:46.127Z,66.33
2023-02-14T12:30:15.884Z,67.94
2023-02-14T12:32:51.762Z,68.22
2023-02-14T12:35:33.578Z,67.63
2023-02-14T12:38:04.923Z,68.05
2023-02-14T12:40:34.908Z,67.62
2023-02-14T12:43:20.684Z,68.36
2023-02-14T12:45:49.089Z,67.71
2023-02-14T12:48:16.742Z,67.54
2023-02-14T12:51:02.954Z,68.21
2023-02-14T12:53:37.941Z,68.14
2023-02-14T12:56:11.271Z,67.87
2023-02-14T12:58:41.078Z,65.08
2023-02-14T13:01:32.813Z,67.55
2023-02-14T13:04:17.526Z,67.33
2023-02-14T13:06:58.180Z,68.09
2023-02-14T13:09:38.166Z,67.31
2023-02-14T13:12:13.880Z,67.90
2023-02-14T13:14:44.016Z,67.30
2023-02-14T13:17:40.521Z,68.63
2023-02-14T13:20:08.794Z,68.86
2023-02-14T13:22:36.748Z,67.48
2023-02-14T13:25:06.903Z,66.70
2023-02-14T13:27:37.708Z,67.53
2023-02-14T13:30:07.020Z,67.80
2023-02-14T13:32:40.827Z,65.53
2023-02-14T13:35:08.512Z,66.28
2023-02-14T13:37:36.887Z,67.18
2023-02-14T13:40:09.656Z,67.20
2023-02-14T13:42:49.925Z,67.14
2023-02-14T13:48:38.017Z,68.32
2023-02-14T13:51:11.267Z,66.49
2023-02-14T13:53:38.350Z,67.36
2023-02-14T13:56:17.730Z,67.52
2023-02-14T13:58:52.376Z,66.74
2023-02-14T14:01:31.810Z,67.22
2023-02-14T14:04:06.940Z,67.85
2023-02-14T14:06:53.581Z,68.11
2023-02-14T14:09:48.570Z,68.48
2023-02-14T14:12:24.943Z,67.74
2023-02-14T14:15:07.309Z,68.31
2023-02-14T14:17:41.467Z,68.93
2023-02-14T14:20:24.062Z,68.95
2023-02-14T14:22:58.371Z,69.14
2023-02-14T14:25:52.986Z,68.61
2023-02-14T14:28:23.200Z,68.57
2023-02-14T14:30:52.496Z,68.80
2023-02-14T14:33:31.308Z,68.85
2023-02-14T14:36:05.565Z,68.39
2023-02-14T14:38:34.083Z,68.31
2023-02-14T14:41:02.328Z,69.00
2023-02-14T14:43:32.048Z,68.86
2023-02-14T14:46:00.929Z,68.80
2023-02-14T14:48:34.316Z,69.08
2023-02-14T14:51:01.264Z,69.57
2023-02-14T14:53:40.785Z,68.94
2023-02-14T14:56:12.256Z,69.07
2023-02-14T14:58:42.086Z,68.95
2023-02-14T15:01:18.026Z,68.97
2023-02-14T15:03:47.494Z,68.66
2023-02-14T15:06:14.520Z,68.32
2023-02-14T15:08:41.520Z,69.21
2023-02-14T15:11:09.080Z,69.03
2023-02-14T15:13:54.078Z,68.49
2023-02-14T15:16:23.910Z,69.29
2023-02-14T15:18:53.091Z,68.85
2023-02-14T15:21:20.210Z,68.80
2023-02-14T15:23:47.466Z,69.17
2023-02-14T15:26:19.023Z,68.90
2023-02-14T15:28:55.270Z,69.42
2023-02-14T15:31:22.909Z,68.89
2023-02-14T15:36:35.411Z,70.06
2023-02-14T15:39:07.740Z,69.67
2023-02-14T15:41:35.940Z,69.92
2023-02-14T15:44:04.211Z,70.21
2023-02-14T15:46:54.558Z,70.75
2023-02-14T15:49:42.877Z,71.11
2023-02-14T15:52:14.364Z,71.27
2023-02-14T15:54:47.898Z,71.38
2023-02-14T15:57:30.752Z,71.02
2023-02-14T15:59:58.122Z,71.19
2023-02-14T16:02:30.802Z,71.46
2023-02-14T16:05:09.086Z,70.99
2023-02-14T16:07:36.751Z,70.82
2023-02-14T16:10:24.976Z,71.15
2023-02-14T16:13:26.459Z,70.87
2023-02-14T16:15:59.673Z,70.78
2023-02-14T16:18:55.804Z,70.69
2023-02-14T16:22:17.885Z,70.46
2023-02-14T16:28:28.589Z,70.26
2023-02-14T16:30:57.421Z,69.40
2023-02-14T16:33:26.568Z,69.68
2023-02-14T16:35:54.788Z,69.41
2023-02-14T16:38:31.422Z,69.26
2023-02-14T16:41:03.607Z,69.41
2023-02-14T16:43:31.234Z,69.35
2023-02-14T16:45:58.906Z,69.47
2023-02-14T16:48:28.946Z,69.62
2023-02-14T16:50:57.018Z,69.76
2023-02-14T16:53:27.942Z,69.95
2023-02-14T16:55:57.017Z,69.61
2023-02-14T17:01:18.122Z,69.64
2023-02-14T17:03:47.967Z,69.62
2023-02-14T17:06:17.292Z,68.62
2023-02-14T17:08:45.956Z,69.28
2023-02-14T17:11:13.767Z,69.13
2023-02-14T17:13:50.147Z,69.33
2023-02-14T17:16:20.270Z,69.64
2023-02-14T17:18:51.304Z,69.09
2023-02-14T17:21:24.291Z,68.52
2023-02-14T17:23:54.543Z,68.98
2023-02-14T17:26:26.342Z,69.09
2023-02-14T17:28:53.885Z,68.80
2023-02-14T17:31:21.428Z,69.14
2023-02-14T17:33:49.342Z,69.29
2023-02-14T17:36:17.930Z,69.12
2023-02-14T17:38:48.023Z,69.11
2023-02-14T17:41:21.965Z,69.44
2023-02-14T17:43:50.350Z,69.78
2023-02-14T17:46:21.595Z,69.68
2023-02-14T17:48:55.932Z,69.15
2023-02-14T17:51:33.281Z,69.16
2023-02-14T17:54:00.831Z,69.60
2023-02-14T17:56:34.445Z,69.21
2023-02-14T17:59:11.949Z,68.71
2023-02-14T18:01:39.281Z,68.69
2023-02-14T18:04:08.987Z,69.16
2023-02-14T18:06:37.497Z,69.14
2023-02-14T18:09:08.928Z,69.22
2023-02-14T18:11:47.566Z,69.26
2023-02-14T18:14:19.166Z,69.54
2023-02-14T18:16:49.877Z,70.02
2023-02-14T18:19:21.999Z,71.08
2023-02-14T18:21:49.260Z,71.30
2023-02-14T18:24:20.675Z,71.47
2023-02-14T18:26:50.987Z,71.44
2023-02-14T18:29:18.201Z,71.99
2023-02-14T18:31:48.161Z,71.63
2023-02-14T18:34:44.052Z,71.46
2023-02-14T18:38:20.195Z,71.58
2023-02-14T18:41:37.732Z,71.40
2023-02-14T18:48:34.875Z,71.49
2023-02-14T18:51:09.614Z,71.56
2023-02-14T18:53:37.487Z,71.76
2023-02-14T18:56:09.676Z,71.92
2023-02-14T18:58:36.857Z,71.90
2023-02-14T19:01:08.419Z,72.17
2023-02-14T19:03:35.366Z,71.78
2023-02-14T19:06:04.219Z,71.80
2023-02-14T19:08:33.279Z,71.66
2023-02-14T19:11:00.749Z,71.74
2023-02-14T19:13:29.608Z,71.44
2023-02-14T19:15:56.948Z,71.71
2023-02-14T19:18:25.694Z,71.59
2023-02-14T19:20:53.007Z,71.43
2023-02-14T19:23:23.328Z,71.56
2023-02-14T19:25:52.290Z,71.39
2023-02-14T19:28:19.296Z,71.17
2023-02-14T19:30:46.219Z,71.12
2023-02-14T19:33:16.623Z,71.63
2023-02-14T19:35:44.126Z,71.34
2023-02-14T19:38:15.194Z,70.80
2023-02-14T19:40:45.342Z,70.30
2023-02-14T19:43:17.706Z,70.55
2023-02-14T19:45:44.938Z,70.55
2023-02-14T19:48:12.384Z,69.98
2023-02-14T19:50:39.566Z,70.35
2023-02-14T19:53:06.485Z,70.86
2023-02-14T19:55:33.413Z,70.05
2023-02-14T19:58:00.692Z,69.60
2023-02-14T20:00:28.357Z,70.27
2023-02-14T20:02:55.437Z,69.92
2023-02-14T20:05:23.801Z,69.92
2023-02-14T20:07:56.586Z,69.76
2023-02-14T20:10:23.717Z,69.79
2023-02-14T20:12:50.794Z,69.39
2023-02-14T20:15:18.014Z,69.97
2023-02-14T20:17:45.205Z,70.31
2023-02-14T20:20:13.976Z,69.70
2023-02-14T20:22:41.086Z,69.79
2023-02-14T20:25:10.144Z,70.02
2023-02-14T20:27:37.753Z,70.06
2023-02-14T20:30:05.785Z,69.90
2023-02-14T20:32:34.001Z,69.48
2023-02-14T20:35:01.199Z,69.90
2023-02-14T20:37:30.779Z,69.88
2023-02-14T20:39:58.300Z,69.51
2023-02-14T20:42:26.029Z,68.65
2023-02-14T20:44:53.602Z,69.10
2023-02-14T20:47:20.696Z,69.70
2023-02-14T20:49:47.790Z,69.83
2023-02-14T20:52:15.049Z,70.11
2023-02-14T20:54:42.388Z,69.23
2023-02-14T20:57:09.487Z,68.62
2023-02-14T20:59:44.855Z,68.75
2023-02-14T21:02:12.518Z,69.22
2023-02-14T21:04:44.189Z,68.73
2023-02-14T21:07:18.710Z,68.94
2023-02-14T21:09:48.183Z,69.01
2023-02-14T21:12:42.969Z,69.16
2023-02-14T21:15:18.248Z,69.54
2023-02-14T21:17:45.439Z,69.86
2023-02-14T21:20:12.633Z,69.90
2023-02-14T21:22:50.180Z,69.91
2023-02-14T21:25:17.143Z,69.73
2023-02-14T21:27:46.512Z,69.27
2023-02-14T21:30:13.862Z,67.99
2023-02-14T21:32:40.917Z,68.88
2023-02-14T21:35:11.974Z,68.37
2023-02-14T21:37:39.157Z,68.88
2023-02-14T21:40:06.936Z,68.86
2023-02-14T21:42:33.941Z,69.32
2023-02-14T21:45:19.592Z,68.98
2023-02-14T21:48:06.440Z,68.93
2023-02-14T21:50:33.957Z,68.84
2023-02-14T21:53:01.180Z,68.45
2023-02-14T21:55:28.094Z,68.42
2023-02-14T21:57:55.054Z,67.81
2023-02-14T22:00:23.926Z,68.30
2023-02-14T22:02:51.146Z,67.99
2023-02-14T22:05:19.704Z,68.41
2023-02-14T22:07:52.122Z,68.30
2023-02-14T22:10:19.446Z,68.76
2023-02-14T22:12:46.621Z,69.07
2023-02-14T22:15:13.702Z,68.47
2023-02-14T22:17:40.965Z,68.42
2023-02-14T22:20:10.498Z,67.81
2023-02-14T22:22:37.484Z,68.50
2023-02-14T22:25:04.584Z,68.94
2023-02-14T22:27:31.767Z,68.01
2023-02-14T22:29:59.051Z,68.34
2023-02-14T22:32:27.124Z,68.64
2023-02-14T22:34:57.936Z,68.63
2023-02-14T22:37:25.096Z,68.46
2023-02-14T22:39:52.134Z,67.81
2023-02-14T22:42:19.207Z,68.25
2023-02-14T22:44:47.416Z,68.07
2023-02-14T22:47:14.447Z,68.00
2023-02-14T22:49:42.279Z,68.08
2023-02-14T22:52:10.091Z,68.58
2023-02-14T22:54:37.261Z,68.88
2023-02-14T22:57:07.011Z,68.71
2023-02-14T22:59:37.299Z,68.27
2023-02-14T23:02:05.297Z,68.69
2023-02-14T23:04:32.904Z,68.76
2023-02-14T23:07:02.260Z,68.49
2023-02-14T23:09:29.409Z,68.82
2023-02-14T23:11:56.554Z,68.79
2023-02-14T23:14:43.281Z,68.83
2023-02-14T23:17:33.516Z,68.59
2023-02-14T23:20:19.293Z,68.37
2023-02-14T23:22:46.257Z,68.31
2023-02-14T23:25:13.400Z,68.31
2023-02-14T23:27:45.179Z,68.40
2023-02-14T23:30:17.885Z,68.45
2023-02-14T23:32:45.800Z,68.29
2023-02-14T23:35:13.161Z,68.18
2023-02-14T23:37:42.207Z,68.67
2023-02-14T23:40:12.673Z,68.74
2023-02-14T23:42:39.644Z,69.05
2023-02-14T23:45:25.179Z,68.78
2023-02-14T23:48:01.412Z,69.20
2023-02-14T23:50:28.586Z,69.04
2023-02-14T23:52:55.966Z,69.26
2023-02-14T23:55:23.360Z,69.11
2023-02-14T23:57:50.389Z,68.95
